Time;durP1;ratioP1;P1;durP2;ratioP2;P2;SDS_P1;SDS_P2;PMS_P1;PMS_P2;Temp;Humidity;BMP_temperature;BMP_pressure;BME280_temperature;BME280_humidity;BME280_pressure;Samples;Min_cycle;Max_cycle;Signal;HPM_P1;HPM_P2
2022/11/12 00:00:47;;;;;;;11.55;6.47;;;6.90;99.90;;;;;;4944332;28;20042;-61
2022/11/12 00:03:13;;;;;;;12.40;6.30;;;7.00;99.90;;;;;;4949758;28;20133;-61
2022/11/12 00:05:38;;;;;;;10.60;6.07;;;7.00;99.90;;;;;;4949602;28;20082;-61
2022/11/12 00:08:04;;;;;;;12.25;6.30;;;6.90;99.90;;;;;;4943895;28;20035;-61
2022/11/12 00:10:31;;;;;;;11.73;6.55;;;6.90;99.90;;;;;;4944832;28;20032;-61
2022/11/12 00:12:56;;;;;;;12.65;6.68;;;7.00;99.90;;;;;;4945333;28;20765;-61
2022/11/12 00:15:22;;;;;;;10.75;6.68;;;7.00;99.90;;;;;;4944202;28;20042;-61
2022/11/12 00:17:48;;;;;;;11.77;6.53;;;7.00;99.90;;;;;;4944224;28;20046;-61
2022/11/12 00:20:13;;;;;;;10.85;6.28;;;6.90;99.90;;;;;;4944294;28;20361;-61
2022/11/12 00:22:39;;;;;;;11.43;6.47;;;6.90;99.90;;;;;;4945606;28;20031;-61
2022/11/12 00:25:05;;;;;;;8.32;6.43;;;7.00;99.90;;;;;;4948179;28;20032;-61
2022/11/12 00:27:32;;;;;;;9.23;6.13;;;7.00;99.90;;;;;;4946781;28;20035;-61
2022/11/12 00:29:57;;;;;;;10.75;5.80;;;7.00;99.90;;;;;;4945813;28;20043;-61
2022/11/12 00:32:23;;;;;;;12.23;5.95;;;6.90;99.90;;;;;;4943992;28;20161;-60
2022/11/12 00:34:48;;;;;;;8.57;5.82;;;6.80;99.90;;;;;;4946229;28;20036;-61
2022/11/12 00:37:15;;;;;;;9.32;6.05;;;6.90;99.90;;;;;;4951964;28;20054;-61
2022/11/12 00:39:41;;;;;;;9.05;5.85;;;6.70;99.90;;;;;;4945343;28;20138;-60
2022/11/12 00:42:07;;;;;;;10.93;5.97;;;6.80;99.90;;;;;;4945794;28;20122;-61
2022/11/12 00:44:32;;;;;;;10.80;6.10;;;6.80;99.90;;;;;;4945645;28;20031;-61
2022/11/12 00:46:58;;;;;;;10.40;6.25;;;6.70;99.90;;;;;;4947536;28;20110;-61
2022/11/12 00:49:23;;;;;;;9.95;6.00;;;6.70;99.90;;;;;;4942305;28;20024;-61
2022/11/12 00:51:49;;;;;;;10.80;6.07;;;6.80;99.90;;;;;;4922544;28;20038;-61
2022/11/12 00:54:15;;;;;;;11.02;6.38;;;6.80;99.90;;;;;;4947099;28;20078;-61
2022/11/12 00:56:40;;;;;;;11.23;6.57;;;6.80;99.90;;;;;;4949018;28;20034;-61
2022/11/12 00:59:06;;;;;;;9.30;5.97;;;6.80;99.90;;;;;;4943528;28;20027;-60
2022/11/12 01:01:32;;;;;;;10.18;6.22;;;6.80;99.90;;;;;;4943322;28;20093;-61
2022/11/12 01:03:58;;;;;;;9.30;6.72;;;6.80;99.90;;;;;;4926970;28;20730;-61
2022/11/12 01:06:24;;;;;;;9.95;6.53;;;6.80;99.90;;;;;;4943689;28;20562;-61
2022/11/12 01:08:50;;;;;;;10.25;6.75;;;6.90;99.90;;;;;;4951590;28;20063;-61
2022/11/12 01:11:21;;;;;;;10.10;5.95;;;6.80;99.90;;;;;;4943805;28;20027;-61
2022/11/12 01:13:54;;;;;;;9.80;5.70;;;6.80;99.90;;;;;;4944776;28;20729;-62
2022/11/12 01:16:22;;;;;;;11.57;6.43;;;6.70;99.90;;;;;;4942193;28;20039;-60
2022/11/12 01:18:56;;;;;;;9.85;6.47;;;6.70;99.90;;;;;;4945601;28;20275;-61
2022/11/12 01:21:28;;;;;;;9.00;6.38;;;6.70;99.90;;;;;;4945181;28;20538;-61
2022/11/12 01:23:56;;;;;;;10.88;6.75;;;6.70;99.90;;;;;;4946374;28;20034;-60
2022/11/12 01:26:22;;;;;;;11.77;6.38;;;6.60;99.90;;;;;;4945124;28;20134;-61
2022/11/12 01:28:48;;;;;;;9.82;6.43;;;6.50;99.90;;;;;;4952470;28;20569;-61
2022/11/12 01:31:15;;;;;;;9.57;6.57;;;6.40;99.90;;;;;;4944479;28;20031;-61
2022/11/12 01:33:42;;;;;;;8.40;6.10;;;6.30;99.90;;;;;;4946647;28;20035;-61
2022/11/12 01:36:08;;;;;;;11.55;6.40;;;6.40;99.90;;;;;;4945313;28;20377;-60
2022/11/12 01:38:35;;;;;;;9.70;6.57;;;6.40;99.90;;;;;;4948835;28;20062;-61
2022/11/12 01:41:01;;;;;;;13.68;7.13;;;6.20;99.90;;;;;;4942982;28;20035;-61
2022/11/12 01:43:27;;;;;;;9.77;6.15;;;6.30;99.90;;;;;;4944087;28;20403;-60
2022/11/12 01:45:53;;;;;;;9.57;6.70;;;6.40;99.90;;;;;;4944270;28;20035;-61
2022/11/12 01:48:38;;;;;;;9.63;6.78;;;6.40;99.90;;;;;;4942962;28;20642;-62
2022/11/12 01:51:06;;;;;;;10.25;6.78;;;6.20;99.90;;;;;;4950633;28;20123;-61
2022/11/12 01:53:40;;;;;;;8.43;6.22;;;6.20;99.90;;;;;;4944042;28;20519;-60
2022/11/12 01:56:07;;;;;;;8.32;6.38;;;6.20;99.90;;;;;;4944276;28;20491;-61
2022/11/12 01:58:35;;;;;;;10.93;6.78;;;6.20;99.90;;;;;;4945677;28;20517;-61
2022/11/12 02:01:02;;;;;;;8.82;6.30;;;6.20;99.90;;;;;;4936742;28;20044;-61
2022/11/12 02:03:27;;;;;;;9.80;6.00;;;6.20;99.90;;;;;;4943477;28;20043;-61
2022/11/12 02:05:59;;;;;;;8.50;6.30;;;6.10;99.90;;;;;;4948615;28;20526;-60
2022/11/12 02:08:28;;;;;;;7.43;5.23;;;6.10;99.90;;;;;;4943739;28;20095;-61
2022/11/12 02:10:53;;;;;;;10.23;6.45;;;6.10;99.90;;;;;;4941417;28;20031;-61
2022/11/12 02:16:05;;;;;;;9.88;6.07;;;6.00;99.90;;;;;;4945167;28;20463;-61
2022/11/12 02:18:31;;;;;;;13.02;6.40;;;6.10;99.90;;;;;;4949359;28;20039;-61
2022/11/12 02:21:01;;;;;;;11.35;6.60;;;6.10;99.90;;;;;;4947210;28;20024;-61
2022/11/12 02:23:27;;;;;;;10.55;6.50;;;6.10;99.90;;;;;;4945753;28;20090;-61
2022/11/12 02:25:53;;;;;;;8.35;6.40;;;6.10;99.90;;;;;;4953988;28;20038;-61
2022/11/12 02:28:18;;;;;;;10.35;6.32;;;6.10;99.90;;;;;;4951691;28;20102;-61
2022/11/12 02:30:48;;;;;;;9.77;6.55;;;6.00;99.90;;;;;;4942353;28;20046;-61
2022/11/12 02:33:14;;;;;;;9.27;6.13;;;6.00;99.90;;;;;;4931287;28;20446;-61
2022/11/12 02:35:40;;;;;;;8.05;6.22;;;6.10;99.90;;;;;;4947543;28;20032;-61
2022/11/12 02:38:06;;;;;;;10.38;6.28;;;6.00;99.90;;;;;;4950676;28;20672;-61
2022/11/12 02:40:32;;;;;;;12.48;6.82;;;6.10;99.90;;;;;;4954146;28;20034;-61
2022/11/12 02:42:58;;;;;;;14.95;6.63;;;6.10;99.90;;;;;;4944926;28;20051;-61
2022/11/12 02:45:25;;;;;;;9.68;6.53;;;6.20;99.90;;;;;;4950520;28;20607;-61
2022/11/12 02:47:51;;;;;;;9.90;7.10;;;6.10;99.90;;;;;;4948767;28;20115;-61
2022/11/12 02:50:17;;;;;;;10.55;6.20;;;6.10;99.90;;;;;;4941816;28;20369;-61
2022/11/12 02:52:42;;;;;;;12.32;7.35;;;6.20;99.90;;;;;;4950599;28;20483;-61
2022/11/12 02:55:10;;;;;;;9.18;6.28;;;6.10;99.90;;;;;;4947000;28;20086;-61
2022/11/12 02:57:37;;;;;;;9.50;6.60;;;6.10;99.90;;;;;;4947268;28;20297;-60
2022/11/12 03:00:09;;;;;;;9.13;6.60;;;6.10;99.90;;;;;;4948919;28;20031;-61
2022/11/12 03:02:41;;;;;;;11.63;6.57;;;6.00;99.90;;;;;;4943224;28;20054;-61
2022/11/12 03:05:10;;;;;;;11.73;6.63;;;6.00;99.90;;;;;;4945540;28;20285;-61
2022/11/12 03:07:37;;;;;;;10.13;6.70;;;6.00;99.90;;;;;;4947489;28;20093;-61
2022/11/12 03:10:03;;;;;;;9.75;6.57;;;6.00;99.90;;;;;;4943393;28;20236;-61
2022/11/12 03:12:33;;;;;;;9.50;6.95;;;6.00;99.90;;;;;;4944387;28;20471;-61
2022/11/12 03:14:58;;;;;;;10.18;6.78;;;6.00;99.90;;;;;;4947693;28;20039;-61
2022/11/12 03:17:24;;;;;;;10.65;6.80;;;6.10;99.90;;;;;;4946264;28;20031;-62
2022/11/12 03:19:50;;;;;;;9.43;6.45;;;6.10;99.90;;;;;;4947116;28;20282;-61
2022/11/12 03:22:15;;;;;;;9.25;6.03;;;6.20;99.90;;;;;;4946089;28;20039;-61
2022/11/12 03:24:41;;;;;;;11.60;6.78;;;6.10;99.90;;;;;;4942637;28;20042;-60
2022/11/12 03:27:06;;;;;;;11.43;6.78;;;6.10;99.90;;;;;;4947866;28;20019;-61
2022/11/12 03:29:32;;;;;;;9.57;6.50;;;6.10;99.90;;;;;;4945634;28;20028;-61
2022/11/12 03:31:57;;;;;;;9.02;6.45;;;6.10;99.90;;;;;;4947163;28;20039;-61
2022/11/12 03:34:23;;;;;;;10.15;6.63;;;6.20;99.90;;;;;;4953326;28;20094;-61
2022/11/12 03:36:48;;;;;;;8.65;6.15;;;6.20;99.90;;;;;;4947559;28;20027;-61
2022/11/12 03:39:14;;;;;;;9.07;6.28;;;6.20;99.90;;;;;;4946132;28;20599;-61
2022/11/12 03:41:39;;;;;;;10.73;5.97;;;6.20;99.90;;;;;;4953048;28;20027;-61
2022/11/12 03:44:05;;;;;;;10.90;6.30;;;6.20;99.90;;;;;;4948113;28;20241;-60
2022/11/12 03:46:30;;;;;;;10.55;5.70;;;6.10;99.90;;;;;;4944893;28;20182;-61
2022/11/12 03:48:58;;;;;;;10.00;6.75;;;6.20;99.90;;;;;;4942065;28;20198;-61
2022/11/12 03:51:23;;;;;;;8.48;6.50;;;6.10;99.90;;;;;;4946370;28;20042;-61
2022/11/12 03:53:49;;;;;;;11.10;6.60;;;6.10;99.90;;;;;;4948111;28;20411;-61
2022/11/12 03:56:14;;;;;;;9.77;6.30;;;6.20;99.90;;;;;;4943514;28;20094;-61
2022/11/12 03:58:40;;;;;;;9.45;6.20;;;6.20;99.90;;;;;;4946006;28;20480;-61
2022/11/12 04:01:05;;;;;;;9.23;5.75;;;6.10;99.90;;;;;;4945501;28;20514;-61
2022/11/12 04:03:31;;;;;;;9.13;5.82;;;6.20;99.90;;;;;;4951554;28;20177;-61
2022/11/12 04:08:41;;;;;;;8.40;5.70;;;6.10;99.90;;;;;;4948386;28;20121;-61
2022/11/12 04:11:12;;;;;;;7.82;5.78;;;6.10;99.90;;;;;;4946525;28;20153;-61
2022/11/12 04:13:46;;;;;;;9.38;6.40;;;6.10;99.90;;;;;;4945556;28;20042;-61
2022/11/12 04:21:50;;;;;;;8.05;5.65;;;6.10;99.90;;;;;;4946776;28;20038;-61
2022/11/12 04:27:27;;;;;;;6.90;5.30;;;6.10;99.90;;;;;;4943772;28;20427;-61
2022/11/12 04:32:49;;;;;;;10.40;6.15;;;6.00;99.90;;;;;;4944204;28;20102;-61
2022/11/12 04:35:15;;;;;;;8.13;5.80;;;6.00;99.90;;;;;;4944527;28;20559;-60
2022/11/12 04:37:44;;;;;;;6.88;5.47;;;6.10;99.90;;;;;;4949780;28;20019;-61
2022/11/12 04:45:44;;;;;;;9.65;5.78;;;6.00;99.90;;;;;;4941263;28;20062;-61
2022/11/12 04:48:10;;;;;;;7.93;5.53;;;5.90;99.90;;;;;;4948829;28;20142;-61
2022/11/12 04:50:36;;;;;;;9.68;6.10;;;5.90;99.90;;;;;;4946263;28;20062;-60
2022/11/12 04:53:01;;;;;;;8.75;6.53;;;5.90;99.90;;;;;;4942353;28;20118;-61
2022/11/12 04:55:27;;;;;;;7.38;5.78;;;5.90;99.90;;;;;;4951490;28;20079;-61
2022/11/12 04:57:52;;;;;;;7.97;5.93;;;5.90;99.90;;;;;;4943136;28;20090;-61
2022/11/12 05:00:18;;;;;;;8.07;5.53;;;5.80;99.90;;;;;;4950099;28;20081;-61
2022/11/12 05:02:44;;;;;;;7.53;6.18;;;5.80;99.90;;;;;;4945254;28;20043;-61
2022/11/12 05:05:09;;;;;;;8.00;6.35;;;5.80;99.90;;;;;;4943125;28;20372;-61
2022/11/12 05:07:35;;;;;;;8.50;5.90;;;5.70;99.90;;;;;;4952564;28;20653;-61
2022/11/12 05:10:00;;;;;;;7.80;5.57;;;5.80;99.90;;;;;;4944512;28;20030;-61
2022/11/12 05:12:26;;;;;;;9.55;5.72;;;5.90;99.90;;;;;;4943344;28;20042;-61
2022/11/12 05:14:51;;;;;;;9.75;6.20;;;5.80;99.90;;;;;;4942563;28;20138;-61
2022/11/12 05:17:17;;;;;;;9.13;5.85;;;5.90;99.90;;;;;;4943266;28;20146;-62
2022/11/12 05:19:43;;;;;;;8.98;6.50;;;5.90;99.90;;;;;;4936614;28;20119;-60
2022/11/12 05:22:11;;;;;;;9.20;5.82;;;6.10;99.90;;;;;;4932801;28;20177;-61
2022/11/12 05:24:42;;;;;;;7.28;5.72;;;6.00;99.90;;;;;;4944039;28;20042;-61
2022/11/12 05:27:13;;;;;;;8.93;5.90;;;6.00;99.90;;;;;;4944169;28;20038;-61
2022/11/12 05:29:39;;;;;;;9.20;6.07;;;6.00;99.90;;;;;;4945018;28;20043;-61
2022/11/12 05:32:06;;;;;;;10.43;6.28;;;6.00;99.90;;;;;;4948373;28;20062;-61
2022/11/12 05:34:32;;;;;;;12.63;6.53;;;6.10;99.90;;;;;;4947714;28;20166;-61
2022/11/12 05:36:58;;;;;;;10.57;6.03;;;6.10;99.90;;;;;;4947376;28;20027;-61
2022/11/12 05:39:24;;;;;;;8.98;6.72;;;6.10;99.90;;;;;;4946518;28;20046;-61
2022/11/12 05:41:49;;;;;;;8.38;6.43;;;6.20;99.90;;;;;;4939045;28;20089;-61
2022/11/12 05:44:15;;;;;;;9.15;6.22;;;6.20;99.90;;;;;;4943779;28;20047;-61
2022/11/12 05:46:41;;;;;;;10.90;6.97;;;6.20;99.90;;;;;;4943149;28;20054;-61
2022/11/12 05:49:07;;;;;;;12.73;6.93;;;6.30;99.90;;;;;;4944025;28;21700;-61
2022/11/12 05:51:32;;;;;;;10.85;6.88;;;6.20;99.90;;;;;;4946317;28;20035;-61
2022/11/12 05:53:58;;;;;;;10.40;6.80;;;6.30;99.90;;;;;;4940428;28;20493;-61
2022/11/12 05:56:24;;;;;;;10.73;6.85;;;6.30;99.90;;;;;;4943106;28;20099;-61
2022/11/12 05:58:49;;;;;;;10.68;7.38;;;6.20;99.90;;;;;;4944313;28;20117;-61
2022/11/12 06:01:15;;;;;;;13.15;7.82;;;6.20;99.90;;;;;;4942806;28;20047;-62
2022/11/12 06:03:40;;;;;;;12.00;7.22;;;6.30;99.90;;;;;;4943259;28;20038;-61
2022/11/12 06:06:06;;;;;;;11.20;7.28;;;6.30;99.90;;;;;;4944096;28;20034;-61
2022/11/12 06:08:32;;;;;;;12.45;7.60;;;6.20;99.90;;;;;;4943984;28;20035;-61
2022/11/12 06:10:57;;;;;;;12.02;7.78;;;6.20;99.90;;;;;;4939380;28;20039;-61
2022/11/12 06:13:24;;;;;;;11.75;7.50;;;6.20;99.90;;;;;;4939380;28;20035;-61
2022/11/12 06:15:51;;;;;;;11.95;7.88;;;6.10;99.90;;;;;;4937961;28;20039;-61
2022/11/12 06:18:17;;;;;;;12.35;8.25;;;6.10;99.90;;;;;;4946050;28;20057;-61
2022/11/12 06:20:42;;;;;;;15.48;7.95;;;6.10;99.90;;;;;;4946493;28;20479;-61
2022/11/12 06:23:08;;;;;;;11.00;8.18;;;6.10;99.90;;;;;;4941552;28;20105;-61
2022/11/12 06:25:33;;;;;;;12.40;8.50;;;6.10;99.90;;;;;;4943194;28;20374;-61
2022/11/12 06:27:59;;;;;;;15.35;8.60;;;6.10;99.90;;;;;;4944042;28;20562;-61
2022/11/12 06:30:24;;;;;;;13.35;8.13;;;6.10;99.90;;;;;;4945399;28;20477;-61
2022/11/12 06:32:50;;;;;;;11.48;8.00;;;6.10;99.90;;;;;;4941807;28;20475;-61
2022/11/12 06:35:17;;;;;;;12.10;7.82;;;6.20;99.90;;;;;;4941917;28;20058;-61
2022/11/12 06:37:47;;;;;;;12.43;8.38;;;6.20;99.90;;;;;;4945270;28;20542;-61
2022/11/12 06:40:13;;;;;;;12.75;8.10;;;6.20;99.90;;;;;;4941955;28;20065;-61
2022/11/12 06:42:38;;;;;;;10.63;7.85;;;6.20;99.90;;;;;;4945765;28;20063;-61
2022/11/12 06:45:05;;;;;;;10.73;8.30;;;6.20;99.90;;;;;;4940770;28;20035;-61
2022/11/12 06:47:30;;;;;;;12.73;7.82;;;6.10;99.90;;;;;;4943065;28;20506;-60
2022/11/12 06:49:56;;;;;;;13.48;8.40;;;6.10;99.90;;;;;;4943136;28;20055;-61
2022/11/12 06:52:21;;;;;;;12.68;8.27;;;6.10;99.90;;;;;;4935966;28;20042;-61
2022/11/12 06:54:47;;;;;;;14.07;8.95;;;6.10;99.90;;;;;;4944423;28;20078;-61
2022/11/12 06:57:12;;;;;;;13.13;8.02;;;6.10;99.90;;;;;;4937883;28;20027;-61
2022/11/12 06:59:38;;;;;;;12.18;8.25;;;6.10;99.90;;;;;;4947491;28;20033;-62
2022/11/12 07:02:04;;;;;;;11.25;8.10;;;6.10;99.90;;;;;;4948041;28;20077;-61
2022/11/12 07:04:30;;;;;;;12.27;8.43;;;6.10;99.90;;;;;;4951070;28;20128;-61
2022/11/12 07:06:55;;;;;;;12.98;8.30;;;6.10;99.90;;;;;;4945419;28;20171;-61
2022/11/12 07:09:21;;;;;;;11.23;8.30;;;6.10;99.90;;;;;;4938909;28;20050;-61
2022/11/12 07:11:46;;;;;;;11.30;8.38;;;6.10;99.90;;;;;;4943730;28;20031;-61
2022/11/12 07:14:12;;;;;;;17.85;8.73;;;6.10;99.90;;;;;;4944514;28;20054;-61
2022/11/12 07:16:37;;;;;;;14.95;9.35;;;6.10;99.90;;;;;;4947152;28;20467;-60
2022/11/12 07:19:03;;;;;;;13.73;9.15;;;6.20;99.90;;;;;;4946068;28;20526;-61
2022/11/12 07:21:29;;;;;;;17.48;8.68;;;6.10;99.90;;;;;;4950612;28;20035;-61
2022/11/12 07:23:54;;;;;;;16.52;9.68;;;6.20;99.90;;;;;;4945244;28;20487;-60
2022/11/12 07:26:22;;;;;;;14.18;9.55;;;6.30;99.90;;;;;;4947356;28;20038;-61
2022/11/12 07:28:50;;;;;;;12.68;9.02;;;6.40;99.90;;;;;;4946832;28;20057;-60
2022/11/12 07:31:17;;;;;;;14.98;9.20;;;6.50;99.90;;;;;;4933203;29;20039;-61
2022/11/12 07:33:44;;;;;;;14.55;9.10;;;6.60;99.90;;;;;;4947278;28;20043;-61
2022/11/12 07:36:12;;;;;;;15.38;9.85;;;6.60;99.90;;;;;;4946048;28;20090;-61
2022/11/12 07:38:40;;;;;;;15.35;9.73;;;6.70;99.90;;;;;;4952070;28;20099;-61
2022/11/12 07:41:08;;;;;;;14.20;10.25;;;6.80;99.90;;;;;;4948051;28;20062;-61
2022/11/12 07:43:36;;;;;;;13.93;9.57;;;7.00;99.90;;;;;;4951673;28;20030;-61
2022/11/12 07:46:04;;;;;;;13.95;9.85;;;7.00;99.90;;;;;;4942410;28;20035;-61
2022/11/12 07:48:32;;;;;;;17.50;10.85;;;7.10;99.90;;;;;;4945567;28;20031;-61
2022/11/12 07:51:05;;;;;;;14.93;9.65;;;7.10;99.90;;;;;;4944581;28;20035;-61
2022/11/12 07:53:31;;;;;;;17.27;10.73;;;7.10;99.90;;;;;;4937099;28;20027;-61
2022/11/12 07:55:59;;;;;;;13.20;10.05;;;7.20;99.90;;;;;;4938139;28;20066;-61
2022/11/12 07:58:26;;;;;;;15.77;9.68;;;7.40;99.90;;;;;;4940935;28;20038;-61
2022/11/12 08:00:52;;;;;;;13.27;9.93;;;7.40;99.90;;;;;;4948622;28;20407;-61
2022/11/12 08:03:18;;;;;;;15.18;9.75;;;7.40;99.90;;;;;;4940015;28;20130;-61
2022/11/12 08:05:44;;;;;;;14.20;9.73;;;7.50;99.90;;;;;;4947361;28;20798;-61
2022/11/12 08:08:10;;;;;;;12.15;8.43;;;7.60;99.90;;;;;;4946222;28;20087;-61
2022/11/12 08:10:36;;;;;;;11.73;8.27;;;7.60;99.90;;;;;;4948629;28;20091;-60
2022/11/12 08:13:02;;;;;;;13.30;8.52;;;7.70;99.90;;;;;;4946738;28;20035;-60
2022/11/12 08:15:28;;;;;;;9.77;7.57;;;7.80;99.90;;;;;;4945489;28;20400;-59
2022/11/12 08:17:53;;;;;;;12.45;7.50;;;7.90;99.90;;;;;;4947316;28;20484;-59
2022/11/12 08:20:19;;;;;;;13.52;7.50;;;8.00;99.90;;;;;;4948299;28;20051;-59
2022/11/12 08:22:44;;;;;;;10.07;7.20;;;8.10;99.90;;;;;;4947671;28;20091;-60
2022/11/12 08:25:10;;;;;;;11.38;7.43;;;8.10;99.90;;;;;;4945645;28;20031;-59
2022/11/12 08:27:35;;;;;;;10.50;7.00;;;8.20;99.90;;;;;;4955139;28;20042;-60
2022/11/12 08:30:02;;;;;;;9.70;6.63;;;8.20;99.90;;;;;;4943896;28;20031;-60
2022/11/12 08:32:28;;;;;;;8.75;6.30;;;8.30;99.90;;;;;;4947100;28;20035;-59
2022/11/12 08:34:53;;;;;;;10.95;6.25;;;8.30;99.90;;;;;;4953334;28;20076;-60
2022/11/12 08:37:19;;;;;;;8.15;5.95;;;8.40;99.90;;;;;;4943367;28;20031;-59
2022/11/12 08:39:44;;;;;;;8.95;5.82;;;8.40;99.90;;;;;;4944648;28;20031;-59
2022/11/12 08:42:10;;;;;;;8.05;5.43;;;8.40;99.90;;;;;;4948504;28;20110;-60
2022/11/12 08:44:35;;;;;;;6.93;5.57;;;8.50;99.90;;;;;;4948621;28;20126;-60
2022/11/12 08:47:01;;;;;;;10.90;6.07;;;8.60;99.90;;;;;;4941126;28;20126;-60
2022/11/12 08:49:28;;;;;;;7.70;5.05;;;8.70;99.90;;;;;;4945085;28;20475;-59
2022/11/12 08:51:54;;;;;;;6.88;5.07;;;8.70;99.90;;;;;;4953906;28;20039;-59
2022/11/12 08:54:19;;;;;;;9.75;5.32;;;8.80;99.90;;;;;;4943183;28;20039;-60
2022/11/12 08:56:45;;;;;;;6.93;4.70;;;8.90;99.90;;;;;;4942180;28;20059;-59
2022/11/12 08:59:10;;;;;;;6.13;4.63;;;8.90;99.90;;;;;;4945011;28;20031;-60
2022/11/12 09:01:36;;;;;;;9.32;5.00;;;9.00;99.90;;;;;;4949157;28;20122;-60
2022/11/12 09:04:01;;;;;;;9.05;4.97;;;9.10;99.90;;;;;;4947593;28;20130;-60
2022/11/12 09:06:27;;;;;;;7.43;4.88;;;9.20;99.90;;;;;;4943856;28;20024;-59
2022/11/12 09:08:53;;;;;;;9.75;4.80;;;9.20;99.90;;;;;;4940540;28;20028;-60
2022/11/12 09:11:18;;;;;;;8.07;4.70;;;9.30;99.90;;;;;;4942322;28;20065;-59
2022/11/12 09:13:44;;;;;;;5.75;4.65;;;9.30;99.90;;;;;;4945559;28;20050;-60
2022/11/12 09:16:09;;;;;;;8.27;4.90;;;9.40;99.90;;;;;;4944522;28;20034;-60
2022/11/12 09:18:36;;;;;;;5.40;4.32;;;9.40;99.90;;;;;;4931793;29;20545;-60
2022/11/12 09:21:10;;;;;;;8.15;4.35;;;9.40;99.90;;;;;;4941287;28;20066;-60
2022/11/12 09:23:36;;;;;;;6.55;4.43;;;9.50;99.90;;;;;;4947084;28;20118;-60
2022/11/12 09:26:03;;;;;;;7.88;5.43;;;9.50;99.90;;;;;;4945081;28;20031;-60
2022/11/12 09:28:29;;;;;;;7.97;4.47;;;9.60;99.90;;;;;;4951277;28;20031;-59
2022/11/12 09:30:54;;;;;;;7.28;5.15;;;9.60;99.90;;;;;;4946281;28;20047;-60
2022/11/12 09:33:26;;;;;;;5.80;4.22;;;9.60;99.90;;;;;;4947741;28;20054;-59
2022/11/12 09:35:52;;;;;;;5.75;4.28;;;9.70;99.90;;;;;;4944621;28;20546;-60
2022/11/12 09:38:19;;;;;;;6.03;3.88;;;9.70;99.90;;;;;;4947126;28;20503;-60
2022/11/12 09:40:50;;;;;;;9.00;4.53;;;9.80;99.90;;;;;;4945676;28;20028;-60
2022/11/12 09:43:35;;;;;;;6.63;4.45;;;9.90;99.90;;;;;;4936994;28;20138;-60
2022/11/12 09:46:13;;;;;;;6.82;4.15;;;9.90;99.90;;;;;;4944346;28;20110;-60
2022/11/12 09:48:45;;;;;;;6.60;4.32;;;10.00;99.90;;;;;;4942209;28;20035;-60
2022/11/12 09:51:36;;;;;;;6.10;4.20;;;10.10;99.90;;;;;;4940060;28;20545;-59
2022/11/12 09:54:19;;;;;;;5.82;4.50;;;10.10;99.90;;;;;;4942124;28;20500;-59
2022/11/12 09:56:47;;;;;;;6.10;4.30;;;10.20;99.90;;;;;;4948438;28;20114;-59
2022/11/12 09:59:13;;;;;;;12.40;4.72;;;10.30;99.90;;;;;;4941302;28;20032;-59
2022/11/12 10:01:41;;;;;;;8.93;4.68;;;10.30;99.90;;;;;;4945249;28;20046;-60
2022/11/12 10:04:40;;;;;;;7.82;4.68;;;10.30;99.90;;;;;;4944065;28;22399;-60
2022/11/12 10:07:21;;;;;;;7.88;4.20;;;10.40;99.90;;;;;;4954730;28;20042;-60
2022/11/12 10:10:02;;;;;;;7.20;4.75;;;10.40;99.90;;;;;;4942057;28;20027;-61
2022/11/12 10:12:48;;;;;;;5.97;4.70;;;10.50;99.90;;;;;;4943981;28;20055;-59
2022/11/12 10:18:22;;;;;;;10.45;4.95;;;10.50;99.90;;;;;;4944614;28;20610;-60
2022/11/12 10:20:51;;;;;;;;;;;10.60;99.90;;;;;;4944539;28;20034;-61
2022/11/12 10:23:26;;;;;;;6.85;4.45;;;10.70;99.90;;;;;;4941333;28;20386;-59
2022/11/12 10:25:55;;;;;;;6.68;4.00;;;10.70;99.90;;;;;;4936188;28;20122;-60
2022/11/12 10:28:32;;;;;;;7.30;4.28;;;10.80;99.90;;;;;;4942405;28;26646;-60
2022/11/12 10:31:09;;;;;;;7.93;4.18;;;10.80;99.90;;;;;;4934996;28;20107;-60
2022/11/12 10:33:35;;;;;;;9.57;4.50;;;10.90;99.90;;;;;;4950812;28;20086;-60
2022/11/12 10:36:28;;;;;;;6.32;4.10;;;10.90;99.90;;;;;;4947277;28;20031;-61
2022/11/12 10:38:55;;;;;;;5.68;4.25;;;11.00;99.90;;;;;;4954142;28;20313;-61
2022/11/12 10:41:25;;;;;;;7.30;4.63;;;11.00;99.90;;;;;;4948022;28;20478;-60
2022/11/12 10:44:01;;;;;;;6.68;4.40;;;11.00;99.90;;;;;;4942214;28;20036;-60
2022/11/12 10:46:37;;;;;;;5.85;4.38;;;11.10;99.90;;;;;;4946957;28;20043;-60
2022/11/12 10:49:20;;;;;;;5.78;4.47;;;11.20;99.90;;;;;;4948087;28;20036;-60
2022/11/12 10:51:57;;;;;;;8.50;4.10;;;11.20;99.90;;;;;;4955455;28;20046;-59
2022/11/12 10:54:25;;;;;;;6.55;4.22;;;11.20;99.90;;;;;;4946438;28;20054;-59
2022/11/12 10:56:51;;;;;;;7.40;3.90;;;11.20;99.90;;;;;;4948939;28;20439;-59
2022/11/12 10:59:19;;;;;;;7.97;4.10;;;11.30;99.90;;;;;;4945812;28;20083;-59
2022/11/12 11:01:53;;;;;;;5.65;3.83;;;11.40;99.90;;;;;;4949951;28;20759;-60
2022/11/12 11:04:30;;;;;;;6.38;4.10;;;11.30;99.90;;;;;;4950376;28;20126;-59
2022/11/12 11:07:20;;;;;;;6.63;4.07;;;11.40;99.90;;;;;;4949043;28;20059;-59
2022/11/12 11:09:56;;;;;;;7.35;3.83;;;11.50;99.90;;;;;;4945642;28;20035;-59
2022/11/12 11:12:30;;;;;;;5.63;4.03;;;11.50;99.90;;;;;;4947634;28;20123;-59
2022/11/12 11:15:14;;;;;;;6.05;4.05;;;11.50;99.90;;;;;;4942912;28;20213;-60
2022/11/12 11:17:40;;;;;;;7.13;4.00;;;11.60;99.90;;;;;;4943912;28;20522;-59
2022/11/12 11:20:21;;;;;;;5.22;3.85;;;11.60;99.90;;;;;;4946982;28;20070;-62
2022/11/12 11:22:55;;;;;;;6.13;4.45;;;11.70;99.90;;;;;;4943252;28;20062;-63
2022/11/12 11:25:27;;;;;;;6.97;3.75;;;11.80;99.90;;;;;;4943166;28;20062;-63
2022/11/12 11:28:00;;;;;;;6.57;4.10;;;11.80;99.90;;;;;;4952747;28;20071;-60
2022/11/12 11:30:26;;;;;;;6.37;4.00;;;11.80;99.90;;;;;;4951162;28;20275;-59
2022/11/12 11:33:28;;;;;;;8.55;4.70;;;11.90;99.90;;;;;;4945011;28;20050;-60
2022/11/12 11:36:29;;;;;;;7.22;3.97;;;11.90;99.90;;;;;;4951165;28;20031;-59
2022/11/12 11:39:04;;;;;;;5.90;3.97;;;12.00;99.90;;;;;;4943206;28;20134;-60
2022/11/12 11:42:13;;;;;;;6.97;4.30;;;12.00;99.90;;;;;;4947459;28;20054;-63
2022/11/12 11:44:58;;;;;;;5.25;3.90;;;12.10;99.90;;;;;;4941363;28;20054;-63
2022/11/12 11:47:40;;;;;;;5.30;3.70;;;12.10;99.90;;;;;;4945723;28;20715;-63
2022/11/12 11:50:24;;;;;;;5.43;3.90;;;12.20;99.90;;;;;;4948340;28;20635;-63
2022/11/12 11:53:13;;;;;;;9.35;4.78;;;12.20;99.90;;;;;;4949255;28;20134;-63
2022/11/12 11:55:54;;;;;;;5.03;3.80;;;12.30;99.90;;;;;;4957070;28;20387;-63
2022/11/12 11:58:41;;;;;;;7.95;4.50;;;12.30;99.90;;;;;;4943998;28;20036;-63
2022/11/12 12:01:25;;;;;;;8.68;4.40;;;12.30;99.90;;;;;;4943414;28;20051;-63
2022/11/12 12:04:25;;;;;;;5.40;4.05;;;12.40;99.90;;;;;;4954895;28;20035;-63
2022/11/12 12:07:04;;;;;;;6.63;3.90;;;12.40;99.90;;;;;;4939023;28;20129;-61
2022/11/12 12:09:37;;;;;;;5.55;3.92;;;12.50;99.90;;;;;;4945153;28;20051;-61
2022/11/12 12:12:27;;;;;;;5.90;4.35;;;12.60;99.90;;;;;;4942586;28;20474;-62
2022/11/12 12:14:58;;;;;;;6.05;3.58;;;12.60;99.90;;;;;;4941492;28;20676;-62
2022/11/12 12:17:38;;;;;;;6.53;4.53;;;12.50;99.90;;;;;;4942838;28;20043;-62
2022/11/12 12:20:25;;;;;;;5.85;3.80;;;12.60;99.90;;;;;;4941658;28;20074;-61
2022/11/12 12:22:59;;;;;;;6.63;3.83;;;12.60;99.90;;;;;;4941885;28;20528;-62
2022/11/12 12:25:30;;;;;;;5.00;3.60;;;12.70;99.90;;;;;;4946612;28;20027;-62
2022/11/12 12:28:07;;;;;;;6.68;3.85;;;12.70;99.90;;;;;;4942944;28;20049;-62
2022/11/12 12:30:42;;;;;;;7.70;3.95;;;12.70;99.90;;;;;;4946099;28;20431;-62
2022/11/12 12:33:28;;;;;;;5.72;3.65;;;12.70;99.90;;;;;;4944868;28;20495;-62
2022/11/12 12:36:01;;;;;;;6.95;3.75;;;12.80;99.90;;;;;;4948770;28;20495;-62
2022/11/12 12:38:36;;;;;;;5.70;3.40;;;12.80;99.90;;;;;;4946711;28;20035;-62
2022/11/12 12:41:28;;;;;;;6.70;3.25;;;12.90;99.90;;;;;;4943464;28;20032;-62
2022/11/12 12:44:05;;;;;;;4.97;3.35;;;13.00;99.90;;;;;;4945047;28;20050;-61
2022/11/12 12:46:38;;;;;;;4.38;3.10;;;13.10;99.90;;;;;;4942480;28;20489;-62
2022/11/12 12:49:06;;;;;;;6.35;3.40;;;13.20;99.90;;;;;;4938133;28;20698;-61
2022/11/12 12:51:33;;;;;;;5.28;3.25;;;13.10;99.90;;;;;;4944060;28;20048;-61
2022/11/12 12:53:58;;;;;;;5.47;3.00;;;13.10;99.90;;;;;;4942250;28;20039;-63
2022/11/12 12:56:30;;;;;;;4.18;2.90;;;13.10;99.90;;;;;;4942842;28;20147;-62
2022/11/12 12:58:56;;;;;;;6.50;3.53;;;13.20;99.90;;;;;;4942139;28;20510;-62
2022/11/12 13:01:22;;;;;;;7.40;3.15;;;13.20;99.90;;;;;;4923246;28;20069;-62
2022/11/12 13:03:52;;;;;;;5.25;3.00;;;13.20;99.90;;;;;;4950692;28;20047;-62
2022/11/12 13:06:21;;;;;;;45.03;34.42;;;13.20;99.90;;;;;;4943396;28;20028;-62
2022/11/12 13:08:53;;;;;;;5.75;4.75;;;13.30;99.90;;;;;;4944490;28;20039;-62
2022/11/12 13:12:20;;;;;;;5.30;3.47;;;13.30;99.90;;;;;;4945470;28;20040;-62
2022/11/12 13:14:43;;;;;;;5.68;3.05;;;13.40;99.90;;;;;;4947254;28;20062;-62
2022/11/12 13:17:10;;;;;;;5.13;3.30;;;13.40;99.90;;;;;;4937867;28;20118;-64
2022/11/12 13:19:56;;;;;;;5.00;3.33;;;13.30;99.90;;;;;;4938267;28;20406;-63
2022/11/12 13:22:22;;;;;;;7.90;3.40;;;13.20;99.90;;;;;;4943599;28;20559;-63
2022/11/12 13:25:06;;;;;;;5.10;3.35;;;13.30;99.90;;;;;;4945309;28;20043;-64
2022/11/12 13:27:38;;;;;;;5.93;3.30;;;13.40;99.90;;;;;;4939498;28;20042;-64